sensor_id;sensor_type;location;lat;lon;timestamp;P1;durP1;ratioP1;P2;durP2;ratioP2
65418;SDS011;52027;50.658;14.004;2022-08-14T00:01:58;6.68;;;4.53;;
65418;SDS011;52027;50.658;14.004;2022-08-14T00:04:24;5.88;;;4.38;;
65418;SDS011;52027;50.658;14.004;2022-08-14T00:06:50;6.97;;;4.55;;
65418;SDS011;52027;50.658;14.004;2022-08-14T00:09:15;6.18;;;4.75;;
65418;SDS011;52027;50.658;14.004;2022-08-14T00:11:40;5.65;;;4.55;;
65418;SDS011;52027;50.658;14.004;2022-08-14T00:14:06;6.40;;;4.63;;
65418;SDS011;52027;50.658;14.004;2022-08-14T00:16:31;5.70;;;4.55;;
65418;SDS011;52027;50.658;14.004;2022-08-14T00:18:57;7.25;;;4.72;;
65418;SDS011;52027;50.658;14.004;2022-08-14T00:21:23;6.57;;;4.50;;
65418;SDS011;52027;50.658;14.004;2022-08-14T00:23:48;5.85;;;4.53;;
65418;SDS011;52027;50.658;14.004;2022-08-14T00:26:15;6.25;;;4.60;;
65418;SDS011;52027;50.658;14.004;2022-08-14T00:28:41;5.45;;;4.55;;
65418;SDS011;52027;50.658;14.004;2022-08-14T00:31:06;6.90;;;4.50;;
65418;SDS011;52027;50.658;14.004;2022-08-14T00:33:31;6.32;;;4.20;;
65418;SDS011;52027;50.658;14.004;2022-08-14T00:35:57;5.25;;;4.38;;
65418;SDS011;52027;50.658;14.004;2022-08-14T00:38:22;6.60;;;4.65;;
65418;SDS011;52027;50.658;14.004;2022-08-14T00:40:48;6.57;;;4.68;;
65418;SDS011;52027;50.658;14.004;2022-08-14T00:43:14;5.75;;;4.53;;
65418;SDS011;52027;50.658;14.004;2022-08-14T00:45:39;5.65;;;4.45;;
65418;SDS011;52027;50.658;14.004;2022-08-14T00:48:05;6.22;;;4.80;;
65418;SDS011;52027;50.658;14.004;2022-08-14T00:50:30;7.43;;;4.57;;
65418;SDS011;52027;50.658;14.004;2022-08-14T00:52:56;6.35;;;4.65;;
65418;SDS011;52027;50.658;14.004;2022-08-14T00:55:24;5.50;;;4.60;;
65418;SDS011;52027;50.658;14.004;2022-08-14T00:57:51;6.10;;;4.85;;
65418;SDS011;52027;50.658;14.004;2022-08-14T01:00:36;6.05;;;4.75;;
65418;SDS011;52027;50.658;14.004;2022-08-14T01:03:03;6.03;;;4.65;;
65418;SDS011;52027;50.658;14.004;2022-08-14T01:05:30;5.45;;;4.50;;
65418;SDS011;52027;50.658;14.004;2022-08-14T01:07:58;6.40;;;4.65;;
65418;SDS011;52027;50.658;14.004;2022-08-14T01:10:25;5.63;;;4.68;;
65418;SDS011;52027;50.658;14.004;2022-08-14T01:13:11;6.32;;;4.75;;
65418;SDS011;52027;50.658;14.004;2022-08-14T01:15:40;5.80;;;4.75;;
65418;SDS011;52027;50.658;14.004;2022-08-14T01:18:07;6.38;;;4.50;;
65418;SDS011;52027;50.658;14.004;2022-08-14T01:20:51;6.03;;;4.30;;
65418;SDS011;52027;50.658;14.004;2022-08-14T01:23:39;7.05;;;4.60;;
65418;SDS011;52027;50.658;14.004;2022-08-14T01:26:10;5.32;;;4.22;;
65418;SDS011;52027;50.658;14.004;2022-08-14T01:28:36;5.40;;;4.50;;
65418;SDS011;52027;50.658;14.004;2022-08-14T01:31:12;6.32;;;4.47;;
65418;SDS011;52027;50.658;14.004;2022-08-14T01:33:40;6.93;;;4.80;;
65418;SDS011;52027;50.658;14.004;2022-08-14T01:36:12;6.07;;;4.50;;
65418;SDS011;52027;50.658;14.004;2022-08-14T01:38:40;5.90;;;4.35;;
65418;SDS011;52027;50.658;14.004;2022-08-14T01:41:10;6.03;;;4.25;;
65418;SDS011;52027;50.658;14.004;2022-08-14T01:43:43;5.55;;;4.57;;
65418;SDS011;52027;50.658;14.004;2022-08-14T01:46:13;6.05;;;4.47;;
65418;SDS011;52027;50.658;14.004;2022-08-14T01:48:43;5.28;;;4.20;;
65418;SDS011;52027;50.658;14.004;2022-08-14T01:51:12;5.38;;;4.40;;
65418;SDS011;52027;50.658;14.004;2022-08-14T01:53:39;5.22;;;4.30;;
65418;SDS011;52027;50.658;14.004;2022-08-14T01:56:09;5.63;;;4.50;;
65418;SDS011;52027;50.658;14.004;2022-08-14T01:58:35;5.93;;;4.60;;
65418;SDS011;52027;50.658;14.004;2022-08-14T02:01:02;6.10;;;4.50;;
65418;SDS011;52027;50.658;14.004;2022-08-14T02:03:29;5.18;;;4.25;;
65418;SDS011;52027;50.658;14.004;2022-08-14T02:05:59;5.72;;;4.47;;
65418;SDS011;52027;50.658;14.004;2022-08-14T02:08:25;5.10;;;4.30;;
65418;SDS011;52027;50.658;14.004;2022-08-14T02:10:54;5.20;;;4.40;;
65418;SDS011;52027;50.658;14.004;2022-08-14T02:13:41;5.22;;;4.50;;
65418;SDS011;52027;50.658;14.004;2022-08-14T02:16:11;5.57;;;4.38;;
65418;SDS011;52027;50.658;14.004;2022-08-14T02:18:40;5.18;;;4.40;;
65418;SDS011;52027;50.658;14.004;2022-08-14T02:21:06;6.63;;;4.53;;
65418;SDS011;52027;50.658;14.004;2022-08-14T02:23:31;5.72;;;4.57;;
65418;SDS011;52027;50.658;14.004;2022-08-14T02:25:58;5.53;;;4.45;;
65418;SDS011;52027;50.658;14.004;2022-08-14T02:28:28;6.90;;;4.50;;
65418;SDS011;52027;50.658;14.004;2022-08-14T02:30:54;5.32;;;4.43;;
65418;SDS011;52027;50.658;14.004;2022-08-14T02:33:20;5.57;;;4.30;;
65418;SDS011;52027;50.658;14.004;2022-08-14T02:35:46;5.38;;;4.50;;
65418;SDS011;52027;50.658;14.004;2022-08-14T02:38:12;5.25;;;4.57;;
65418;SDS011;52027;50.658;14.004;2022-08-14T02:40:37;5.05;;;4.30;;
65418;SDS011;52027;50.658;14.004;2022-08-14T02:43:03;5.45;;;4.22;;
65418;SDS011;52027;50.658;14.004;2022-08-14T02:45:30;5.20;;;4.28;;
65418;SDS011;52027;50.658;14.004;2022-08-14T02:47:57;6.22;;;4.43;;
65418;SDS011;52027;50.658;14.004;2022-08-14T02:50:24;5.13;;;4.22;;
65418;SDS011;52027;50.658;14.004;2022-08-14T02:52:49;5.30;;;4.28;;
65418;SDS011;52027;50.658;14.004;2022-08-14T02:55:15;5.15;;;4.22;;
65418;SDS011;52027;50.658;14.004;2022-08-14T02:57:40;5.90;;;4.60;;
65418;SDS011;52027;50.658;14.004;2022-08-14T03:00:08;5.28;;;4.25;;
65418;SDS011;52027;50.658;14.004;2022-08-14T03:02:37;6.05;;;4.70;;
65418;SDS011;52027;50.658;14.004;2022-08-14T03:05:02;5.63;;;4.38;;
65418;SDS011;52027;50.658;14.004;2022-08-14T03:07:28;6.25;;;4.40;;
65418;SDS011;52027;50.658;14.004;2022-08-14T03:09:54;6.32;;;4.22;;
65418;SDS011;52027;50.658;14.004;2022-08-14T03:12:19;5.97;;;4.65;;
65418;SDS011;52027;50.658;14.004;2022-08-14T03:14:45;5.00;;;4.20;;
65418;SDS011;52027;50.658;14.004;2022-08-14T03:17:15;7.07;;;4.28;;
65418;SDS011;52027;50.658;14.004;2022-08-14T03:19:41;5.78;;;4.40;;
65418;SDS011;52027;50.658;14.004;2022-08-14T03:22:06;5.50;;;4.60;;
65418;SDS011;52027;50.658;14.004;2022-08-14T03:24:32;6.00;;;4.90;;
65418;SDS011;52027;50.658;14.004;2022-08-14T03:26:58;6.43;;;4.60;;
65418;SDS011;52027;50.658;14.004;2022-08-14T03:29:23;5.95;;;4.40;;
65418;SDS011;52027;50.658;14.004;2022-08-14T03:31:51;5.88;;;4.57;;
65418;SDS011;52027;50.658;14.004;2022-08-14T03:34:17;6.00;;;4.22;;
65418;SDS011;52027;50.658;14.004;2022-08-14T03:36:43;5.85;;;4.50;;
65418;SDS011;52027;50.658;14.004;2022-08-14T03:39:09;5.53;;;4.30;;
65418;SDS011;52027;50.658;14.004;2022-08-14T03:41:36;6.40;;;4.47;;
65418;SDS011;52027;50.658;14.004;2022-08-14T03:44:03;5.65;;;4.13;;
65418;SDS011;52027;50.658;14.004;2022-08-14T03:46:32;5.75;;;4.22;;
65418;SDS011;52027;50.658;14.004;2022-08-14T03:48:59;6.40;;;4.47;;
65418;SDS011;52027;50.658;14.004;2022-08-14T03:51:29;5.93;;;4.70;;
65418;SDS011;52027;50.658;14.004;2022-08-14T03:53:55;5.18;;;4.30;;
65418;SDS011;52027;50.658;14.004;2022-08-14T03:56:22;6.45;;;4.50;;
65418;SDS011;52027;50.658;14.004;2022-08-14T03:58:51;5.65;;;4.65;;
65418;SDS011;52027;50.658;14.004;2022-08-14T04:01:19;4.95;;;4.25;;
65418;SDS011;52027;50.658;14.004;2022-08-14T04:03:49;5.32;;;4.50;;
65418;SDS011;52027;50.658;14.004;2022-08-14T04:06:17;5.30;;;4.10;;
65418;SDS011;52027;50.658;14.004;2022-08-14T04:08:45;5.35;;;4.28;;
65418;SDS011;52027;50.658;14.004;2022-08-14T04:11:12;5.38;;;4.30;;
65418;SDS011;52027;50.658;14.004;2022-08-14T04:13:40;4.80;;;4.20;;
65418;SDS011;52027;50.658;14.004;2022-08-14T04:16:24;5.45;;;4.28;;
65418;SDS011;52027;50.658;14.004;2022-08-14T04:18:50;7.95;;;4.55;;
65418;SDS011;52027;50.658;14.004;2022-08-14T04:21:19;5.30;;;4.35;;
65418;SDS011;52027;50.658;14.004;2022-08-14T04:23:50;5.38;;;4.50;;
65418;SDS011;52027;50.658;14.004;2022-08-14T04:26:17;5.38;;;4.20;;
65418;SDS011;52027;50.658;14.004;2022-08-14T04:28:45;5.47;;;4.38;;
65418;SDS011;52027;50.658;14.004;2022-08-14T04:31:12;5.30;;;3.88;;
65418;SDS011;52027;50.658;14.004;2022-08-14T04:33:37;6.43;;;4.32;;
65418;SDS011;52027;50.658;14.004;2022-08-14T04:36:03;5.95;;;4.60;;
65418;SDS011;52027;50.658;14.004;2022-08-14T04:38:29;4.90;;;4.10;;
65418;SDS011;52027;50.658;14.004;2022-08-14T04:41:13;6.00;;;4.57;;
65418;SDS011;52027;50.658;14.004;2022-08-14T04:44:16;5.30;;;4.22;;
65418;SDS011;52027;50.658;14.004;2022-08-14T04:46:42;5.97;;;4.20;;
65418;SDS011;52027;50.658;14.004;2022-08-14T04:49:31;5.28;;;4.40;;
65418;SDS011;52027;50.658;14.004;2022-08-14T04:51:57;5.00;;;4.10;;
65418;SDS011;52027;50.658;14.004;2022-08-14T04:54:23;5.18;;;4.43;;
65418;SDS011;52027;50.658;14.004;2022-08-14T04:56:51;5.88;;;4.40;;
65418;SDS011;52027;50.658;14.004;2022-08-14T04:59:17;5.72;;;4.47;;
65418;SDS011;52027;50.658;14.004;2022-08-14T05:01:43;5.25;;;4.50;;
65418;SDS011;52027;50.658;14.004;2022-08-14T05:04:09;4.90;;;4.20;;
65418;SDS011;52027;50.658;14.004;2022-08-14T05:06:36;5.50;;;4.47;;
65418;SDS011;52027;50.658;14.004;2022-08-14T05:09:02;5.20;;;4.28;;
65418;SDS011;52027;50.658;14.004;2022-08-14T05:11:28;5.50;;;4.43;;
65418;SDS011;52027;50.658;14.004;2022-08-14T05:13:57;8.13;;;4.35;;
65418;SDS011;52027;50.658;14.004;2022-08-14T05:16:23;6.00;;;4.60;;
65418;SDS011;52027;50.658;14.004;2022-08-14T05:18:53;5.35;;;4.18;;
65418;SDS011;52027;50.658;14.004;2022-08-14T05:21:18;6.22;;;4.50;;
65418;SDS011;52027;50.658;14.004;2022-08-14T05:23:44;5.57;;;4.57;;
65418;SDS011;52027;50.658;14.004;2022-08-14T05:26:09;6.32;;;4.25;;
65418;SDS011;52027;50.658;14.004;2022-08-14T05:28:40;6.13;;;4.70;;
65418;SDS011;52027;50.658;14.004;2022-08-14T05:31:11;5.32;;;4.30;;
65418;SDS011;52027;50.658;14.004;2022-08-14T05:33:42;5.28;;;4.43;;
65418;SDS011;52027;50.658;14.004;2022-08-14T05:36:09;6.03;;;4.60;;
65418;SDS011;52027;50.658;14.004;2022-08-14T05:38:40;4.95;;;4.25;;
65418;SDS011;52027;50.658;14.004;2022-08-14T05:41:08;6.53;;;4.50;;
65418;SDS011;52027;50.658;14.004;2022-08-14T05:43:39;5.75;;;4.50;;
65418;SDS011;52027;50.658;14.004;2022-08-14T05:46:06;5.45;;;4.50;;
65418;SDS011;52027;50.658;14.004;2022-08-14T05:48:33;5.10;;;4.25;;
65418;SDS011;52027;50.658;14.004;2022-08-14T05:50:59;6.78;;;4.50;;
65418;SDS011;52027;50.658;14.004;2022-08-14T05:53:25;5.40;;;4.55;;
65418;SDS011;52027;50.658;14.004;2022-08-14T05:55:51;5.38;;;4.43;;
65418;SDS011;52027;50.658;14.004;2022-08-14T05:58:17;5.70;;;4.50;;
65418;SDS011;52027;50.658;14.004;2022-08-14T06:00:44;5.53;;;4.43;;
65418;SDS011;52027;50.658;14.004;2022-08-14T06:03:11;5.47;;;4.43;;
65418;SDS011;52027;50.658;14.004;2022-08-14T06:05:40;5.13;;;4.28;;
65418;SDS011;52027;50.658;14.004;2022-08-14T06:11:03;5.78;;;4.40;;
65418;SDS011;52027;50.658;14.004;2022-08-14T06:13:33;6.65;;;4.50;;
65418;SDS011;52027;50.658;14.004;2022-08-14T06:16:04;4.97;;;4.38;;
65418;SDS011;52027;50.658;14.004;2022-08-14T06:18:30;6.00;;;4.70;;
65418;SDS011;52027;50.658;14.004;2022-08-14T06:20:55;5.70;;;4.53;;
65418;SDS011;52027;50.658;14.004;2022-08-14T06:23:21;5.40;;;4.13;;
65418;SDS011;52027;50.658;14.004;2022-08-14T06:25:46;5.78;;;4.70;;
65418;SDS011;52027;50.658;14.004;2022-08-14T06:28:15;5.93;;;4.57;;
65418;SDS011;52027;50.658;14.004;2022-08-14T06:30:45;5.22;;;4.40;;
65418;SDS011;52027;50.658;14.004;2022-08-14T06:33:11;5.55;;;4.70;;
65418;SDS011;52027;50.658;14.004;2022-08-14T06:35:37;5.93;;;4.57;;
65418;SDS011;52027;50.658;14.004;2022-08-14T06:38:02;5.80;;;4.28;;
65418;SDS011;52027;50.658;14.004;2022-08-14T06:40:30;4.85;;;4.10;;
65418;SDS011;52027;50.658;14.004;2022-08-14T06:43:01;6.70;;;4.40;;
65418;SDS011;52027;50.658;14.004;2022-08-14T06:45:30;6.00;;;4.43;;
65418;SDS011;52027;50.658;14.004;2022-08-14T06:47:57;5.50;;;4.20;;
65418;SDS011;52027;50.658;14.004;2022-08-14T06:50:22;5.78;;;4.47;;
65418;SDS011;52027;50.658;14.004;2022-08-14T06:52:49;5.43;;;4.18;;
65418;SDS011;52027;50.658;14.004;2022-08-14T06:55:14;4.93;;;4.00;;
65418;SDS011;52027;50.658;14.004;2022-08-14T06:57:45;5.20;;;4.25;;
65418;SDS011;52027;50.658;14.004;2022-08-14T07:00:13;5.00;;;3.85;;
65418;SDS011;52027;50.658;14.004;2022-08-14T07:02:40;5.03;;;4.15;;
65418;SDS011;52027;50.658;14.004;2022-08-14T07:05:24;6.40;;;4.13;;
65418;SDS011;52027;50.658;14.004;2022-08-14T07:08:12;6.57;;;4.10;;
65418;SDS011;52027;50.658;14.004;2022-08-14T07:10:38;4.97;;;4.20;;
65418;SDS011;52027;50.658;14.004;2022-08-14T07:13:04;5.90;;;4.63;;
65418;SDS011;52027;50.658;14.004;2022-08-14T07:15:31;6.18;;;4.65;;
65418;SDS011;52027;50.658;14.004;2022-08-14T07:17:57;5.82;;;4.55;;
65418;SDS011;52027;50.658;14.004;2022-08-14T07:20:22;6.75;;;4.63;;
65418;SDS011;52027;50.658;14.004;2022-08-14T07:22:48;5.50;;;4.72;;
65418;SDS011;52027;50.658;14.004;2022-08-14T07:25:14;6.40;;;5.10;;
65418;SDS011;52027;50.658;14.004;2022-08-14T07:27:40;5.93;;;4.90;;
65418;SDS011;52027;50.658;14.004;2022-08-14T07:30:06;7.00;;;5.13;;
65418;SDS011;52027;50.658;14.004;2022-08-14T07:32:32;6.30;;;5.00;;
65418;SDS011;52027;50.658;14.004;2022-08-14T07:34:58;5.88;;;4.90;;
65418;SDS011;52027;50.658;14.004;2022-08-14T07:37:23;6.18;;;5.00;;
65418;SDS011;52027;50.658;14.004;2022-08-14T07:39:49;6.95;;;5.00;;
65418;SDS011;52027;50.658;14.004;2022-08-14T07:42:15;6.35;;;5.00;;
65418;SDS011;52027;50.658;14.004;2022-08-14T07:44:40;6.00;;;4.97;;
65418;SDS011;52027;50.658;14.004;2022-08-14T07:47:06;6.70;;;4.93;;
65418;SDS011;52027;50.658;14.004;2022-08-14T07:49:31;6.13;;;5.00;;
65418;SDS011;52027;50.658;14.004;2022-08-14T07:51:58;6.72;;;5.07;;
65418;SDS011;52027;50.658;14.004;2022-08-14T07:54:23;6.80;;;4.88;;
65418;SDS011;52027;50.658;14.004;2022-08-14T07:56:49;6.20;;;4.90;;
65418;SDS011;52027;50.658;14.004;2022-08-14T07:59:15;5.80;;;4.93;;
65418;SDS011;52027;50.658;14.004;2022-08-14T08:01:41;6.45;;;4.80;;
65418;SDS011;52027;50.658;14.004;2022-08-14T08:04:07;6.13;;;5.20;;
65418;SDS011;52027;50.658;14.004;2022-08-14T08:06:34;5.72;;;4.90;;
65418;SDS011;52027;50.658;14.004;2022-08-14T08:09:02;6.90;;;5.40;;
65418;SDS011;52027;50.658;14.004;2022-08-14T08:11:32;6.68;;;5.07;;
65418;SDS011;52027;50.658;14.004;2022-08-14T08:13:59;6.05;;;5.05;;
65418;SDS011;52027;50.658;14.004;2022-08-14T08:16:30;7.05;;;5.32;;
65418;SDS011;52027;50.658;14.004;2022-08-14T08:18:56;7.47;;;5.03;;
65418;SDS011;52027;50.658;14.004;2022-08-14T08:21:21;6.63;;;5.20;;
65418;SDS011;52027;50.658;14.004;2022-08-14T08:23:46;6.57;;;4.80;;
65418;SDS011;52027;50.658;14.004;2022-08-14T08:26:12;6.20;;;4.93;;
65418;SDS011;52027;50.658;14.004;2022-08-14T08:28:38;8.32;;;5.10;;
65418;SDS011;52027;50.658;14.004;2022-08-14T08:31:04;7.07;;;4.82;;
65418;SDS011;52027;50.658;14.004;2022-08-14T08:33:31;6.03;;;5.00;;
65418;SDS011;52027;50.658;14.004;2022-08-14T08:36:00;6.22;;;4.85;;
65418;SDS011;52027;50.658;14.004;2022-08-14T08:38:30;6.68;;;4.55;;
65418;SDS011;52027;50.658;14.004;2022-08-14T08:40:56;8.25;;;4.90;;
65418;SDS011;52027;50.658;14.004;2022-08-14T08:48:20;6.43;;;4.43;;
65418;SDS011;52027;50.658;14.004;2022-08-14T08:50:46;6.32;;;4.70;;
65418;SDS011;52027;50.658;14.004;2022-08-14T08:53:12;5.38;;;4.43;;
65418;SDS011;52027;50.658;14.004;2022-08-14T08:55:41;5.43;;;4.60;;
65418;SDS011;52027;50.658;14.004;2022-08-14T08:58:08;6.38;;;4.70;;
65418;SDS011;52027;50.658;14.004;2022-08-14T09:00:45;5.82;;;4.70;;
65418;SDS011;52027;50.658;14.004;2022-08-14T09:03:16;5.45;;;4.45;;
65418;SDS011;52027;50.658;14.004;2022-08-14T09:05:52;5.80;;;4.38;;
65418;SDS011;52027;50.658;14.004;2022-08-14T09:08:19;6.38;;;4.80;;
65418;SDS011;52027;50.658;14.004;2022-08-14T09:10:46;5.45;;;4.50;;
65418;SDS011;52027;50.658;14.004;2022-08-14T09:13:12;6.30;;;4.63;;
65418;SDS011;52027;50.658;14.004;2022-08-14T09:15:40;5.90;;;4.63;;
65418;SDS011;52027;50.658;14.004;2022-08-14T09:18:07;7.57;;;4.70;;
65418;SDS011;52027;50.658;14.004;2022-08-14T09:20:33;5.25;;;4.47;;
65418;SDS011;52027;50.658;14.004;2022-08-14T09:23:01;5.95;;;4.55;;
65418;SDS011;52027;50.658;14.004;2022-08-14T09:25:28;5.80;;;4.40;;
65418;SDS011;52027;50.658;14.004;2022-08-14T09:27:53;6.28;;;4.63;;
65418;SDS011;52027;50.658;14.004;2022-08-14T09:30:19;6.28;;;4.63;;
65418;SDS011;52027;50.658;14.004;2022-08-14T09:32:51;5.45;;;4.68;;
65418;SDS011;52027;50.658;14.004;2022-08-14T09:35:42;5.10;;;4.32;;
65418;SDS011;52027;50.658;14.004;2022-08-14T09:38:27;6.28;;;4.20;;
65418;SDS011;52027;50.658;14.004;2022-08-14T09:46:27;5.18;;;4.30;;
65418;SDS011;52027;50.658;14.004;2022-08-14T09:48:59;5.60;;;4.35;;
65418;SDS011;52027;50.658;14.004;2022-08-14T09:51:25;7.57;;;4.38;;
65418;SDS011;52027;50.658;14.004;2022-08-14T09:54:06;6.90;;;4.55;;
65418;SDS011;52027;50.658;14.004;2022-08-14T09:56:47;6.03;;;4.55;;
65418;SDS011;52027;50.658;14.004;2022-08-14T09:59:14;6.70;;;4.60;;
65418;SDS011;52027;50.658;14.004;2022-08-14T10:01:46;5.68;;;4.38;;
65418;SDS011;52027;50.658;14.004;2022-08-14T10:04:23;5.28;;;4.30;;
65418;SDS011;52027;50.658;14.004;2022-08-14T10:06:50;5.30;;;4.10;;
65418;SDS011;52027;50.658;14.004;2022-08-14T10:09:16;6.53;;;4.40;;
65418;SDS011;52027;50.658;14.004;2022-08-14T10:11:53;5.93;;;4.13;;
65418;SDS011;52027;50.658;14.004;2022-08-14T10:14:20;5.00;;;4.35;;
65418;SDS011;52027;50.658;14.004;2022-08-14T10:16:50;5.47;;;4.30;;
65418;SDS011;52027;50.658;14.004;2022-08-14T10:19:18;5.32;;;4.15;;
65418;SDS011;52027;50.658;14.004;2022-08-14T10:22:02;5.65;;;4.13;;
65418;SDS011;52027;50.658;14.004;2022-08-14T10:24:36;5.63;;;4.07;;
65418;SDS011;52027;50.658;14.004;2022-08-14T10:27:04;5.82;;;4.38;;
65418;SDS011;52027;50.658;14.004;2022-08-14T10:29:42;5.30;;;4.22;;
65418;SDS011;52027;50.658;14.004;2022-08-14T10:32:11;6.03;;;4.30;;
65418;SDS011;52027;50.658;14.004;2022-08-14T10:34:38;5.60;;;4.35;;
65418;SDS011;52027;50.658;14.004;2022-08-14T10:37:08;4.93;;;4.00;;
65418;SDS011;52027;50.658;14.004;2022-08-14T10:39:36;7.03;;;4.30;;
65418;SDS011;52027;50.658;14.004;2022-08-14T10:42:04;6.25;;;4.18;;
65418;SDS011;52027;50.658;14.004;2022-08-14T10:44:45;5.60;;;4.50;;
65418;SDS011;52027;50.658;14.004;2022-08-14T10:47:15;6.95;;;4.07;;
65418;SDS011;52027;50.658;14.004;2022-08-14T10:49:43;6.13;;;4.10;;
65418;SDS011;52027;50.658;14.004;2022-08-14T10:52:21;5.07;;;4.22;;
65418;SDS011;52027;50.658;14.004;2022-08-14T10:54:49;6.25;;;4.15;;
65418;SDS011;52027;50.658;14.004;2022-08-14T10:57:19;5.03;;;4.22;;
65418;SDS011;52027;50.658;14.004;2022-08-14T10:59:49;6.30;;;4.20;;
65418;SDS011;52027;50.658;14.004;2022-08-14T11:02:18;5.68;;;4.30;;
65418;SDS011;52027;50.658;14.004;2022-08-14T11:04:59;4.68;;;3.90;;
65418;SDS011;52027;50.658;14.004;2022-08-14T11:07:25;4.85;;;4.20;;
65418;SDS011;52027;50.658;14.004;2022-08-14T11:09:52;5.43;;;4.32;;
65418;SDS011;52027;50.658;14.004;2022-08-14T11:12:25;4.82;;;3.95;;
65418;SDS011;52027;50.658;14.004;2022-08-14T11:15:02;5.30;;;4.20;;
65418;SDS011;52027;50.658;14.004;2022-08-14T11:17:31;5.88;;;4.05;;
65418;SDS011;52027;50.658;14.004;2022-08-14T11:20:01;4.90;;;3.78;;
65418;SDS011;52027;50.658;14.004;2022-08-14T11:22:30;5.93;;;4.18;;
65418;SDS011;52027;50.658;14.004;2022-08-14T11:25:01;6.22;;;4.20;;
65418;SDS011;52027;50.658;14.004;2022-08-14T11:27:30;4.67;;;4.00;;
65418;SDS011;52027;50.658;14.004;2022-08-14T11:30:01;5.72;;;4.18;;
65418;SDS011;52027;50.658;14.004;2022-08-14T11:32:30;4.90;;;4.13;;
65418;SDS011;52027;50.658;14.004;2022-08-14T11:34:56;4.75;;;4.10;;
65418;SDS011;52027;50.658;14.004;2022-08-14T11:37:22;4.60;;;4.05;;
65418;SDS011;52027;50.658;14.004;2022-08-14T11:39:48;5.38;;;4.00;;
65418;SDS011;52027;50.658;14.004;2022-08-14T11:42:23;5.57;;;4.38;;
65418;SDS011;52027;50.658;14.004;2022-08-14T11:44:50;6.22;;;4.00;;
65418;SDS011;52027;50.658;14.004;2022-08-14T11:47:31;4.43;;;3.80;;
65418;SDS011;52027;50.658;14.004;2022-08-14T11:49:57;5.07;;;3.80;;
65418;SDS011;52027;50.658;14.004;2022-08-14T11:52:31;4.45;;;3.75;;
65418;SDS011;52027;50.658;14.004;2022-08-14T11:57:24;5.72;;;4.20;;
65418;SDS011;52027;50.658;14.004;2022-08-14T11:59:59;4.78;;;3.97;;
65418;SDS011;52027;50.658;14.004;2022-08-14T12:02:25;6.20;;;3.70;;
65418;SDS011;52027;50.658;14.004;2022-08-14T12:04:51;5.97;;;3.88;;
65418;SDS011;52027;50.658;14.004;2022-08-14T12:07:18;5.65;;;4.07;;
65418;SDS011;52027;50.658;14.004;2022-08-14T12:09:44;5.00;;;3.95;;
65418;SDS011;52027;50.658;14.004;2022-08-14T12:12:14;5.10;;;3.80;;
65418;SDS011;52027;50.658;14.004;2022-08-14T12:14:51;6.13;;;3.90;;
65418;SDS011;52027;50.658;14.004;2022-08-14T12:17:28;7.30;;;4.10;;
65418;SDS011;52027;50.658;14.004;2022-08-14T12:19:59;5.22;;;3.88;;
65418;SDS011;52027;50.658;14.004;2022-08-14T12:22:37;6.20;;;3.83;;
65418;SDS011;52027;50.658;14.004;2022-08-14T12:25:14;5.20;;;3.88;;
65418;SDS011;52027;50.658;14.004;2022-08-14T12:30:37;6.72;;;4.30;;
65418;SDS011;52027;50.658;14.004;2022-08-14T12:33:17;6.65;;;4.53;;
65418;SDS011;52027;50.658;14.004;2022-08-14T12:35:51;5.28;;;4.13;;
65418;SDS011;52027;50.658;14.004;2022-08-14T12:38:18;7.28;;;4.00;;
65418;SDS011;52027;50.658;14.004;2022-08-14T12:40:54;4.82;;;3.97;;
65418;SDS011;52027;50.658;14.004;2022-08-14T12:43:20;5.13;;;4.05;;
65418;SDS011;52027;50.658;14.004;2022-08-14T12:45:46;6.15;;;4.18;;
65418;SDS011;52027;50.658;14.004;2022-08-14T12:48:19;5.55;;;4.00;;
65418;SDS011;52027;50.658;14.004;2022-08-14T12:50:45;5.65;;;4.05;;
65418;SDS011;52027;50.658;14.004;2022-08-14T12:53:11;4.53;;;3.90;;
65418;SDS011;52027;50.658;14.004;2022-08-14T12:55:37;5.18;;;3.80;;
65418;SDS011;52027;50.658;14.004;2022-08-14T12:58:04;5.85;;;4.25;;
65418;SDS011;52027;50.658;14.004;2022-08-14T13:00:32;5.55;;;4.40;;
65418;SDS011;52027;50.658;14.004;2022-08-14T13:03:01;5.57;;;4.30;;
65418;SDS011;52027;50.658;14.004;2022-08-14T13:05:30;4.40;;;4.00;;
65418;SDS011;52027;50.658;14.004;2022-08-14T13:07:58;5.50;;;4.20;;
65418;SDS011;52027;50.658;14.004;2022-08-14T13:10:25;6.15;;;4.10;;
65418;SDS011;52027;50.658;14.004;2022-08-14T13:12:53;5.45;;;4.07;;
65418;SDS011;52027;50.658;14.004;2022-08-14T13:15:21;5.40;;;4.10;;
65418;SDS011;52027;50.658;14.004;2022-08-14T13:17:52;7.70;;;4.10;;
65418;SDS011;52027;50.658;14.004;2022-08-14T13:20:21;5.10;;;4.00;;
65418;SDS011;52027;50.658;14.004;2022-08-14T13:22:47;6.20;;;4.60;;
65418;SDS011;52027;50.658;14.004;2022-08-14T13:25:15;6.93;;;4.15;;
65418;SDS011;52027;50.658;14.004;2022-08-14T13:27:46;4.93;;;4.25;;
65418;SDS011;52027;50.658;14.004;2022-08-14T13:30:14;5.13;;;4.20;;
65418;SDS011;52027;50.658;14.004;2022-08-14T13:32:42;6.35;;;4.55;;
65418;SDS011;52027;50.658;14.004;2022-08-14T13:35:09;6.20;;;4.30;;
65418;SDS011;52027;50.658;14.004;2022-08-14T13:37:36;5.53;;;4.60;;
65418;SDS011;52027;50.658;14.004;2022-08-14T13:40:02;7.05;;;4.60;;
65418;SDS011;52027;50.658;14.004;2022-08-14T13:42:29;6.22;;;4.38;;
65418;SDS011;52027;50.658;14.004;2022-08-14T13:44:56;6.82;;;4.40;;
65418;SDS011;52027;50.658;14.004;2022-08-14T13:47:25;5.78;;;4.30;;
65418;SDS011;52027;50.658;14.004;2022-08-14T13:49:54;6.18;;;4.53;;
65418;SDS011;52027;50.658;14.004;2022-08-14T13:52:29;6.13;;;4.55;;
65418;SDS011;52027;50.658;14.004;2022-08-14T13:55:02;8.05;;;4.88;;
65418;SDS011;52027;50.658;14.004;2022-08-14T13:57:30;5.70;;;4.28;;
65418;SDS011;52027;50.658;14.004;2022-08-14T14:00:00;6.85;;;4.53;;
65418;SDS011;52027;50.658;14.004;2022-08-14T14:02:39;6.55;;;4.50;;
65418;SDS011;52027;50.658;14.004;2022-08-14T14:05:06;5.90;;;4.20;;
65418;SDS011;52027;50.658;14.004;2022-08-14T14:07:33;6.50;;;4.30;;
65418;SDS011;52027;50.658;14.004;2022-08-14T14:10:00;6.72;;;4.30;;
65418;SDS011;52027;50.658;14.004;2022-08-14T14:12:28;6.45;;;4.00;;
65418;SDS011;52027;50.658;14.004;2022-08-14T14:14:54;4.88;;;4.20;;
65418;SDS011;52027;50.658;14.004;2022-08-14T14:17:19;5.05;;;4.40;;
65418;SDS011;52027;50.658;14.004;2022-08-14T14:19:48;5.45;;;4.20;;
65418;SDS011;52027;50.658;14.004;2022-08-14T14:22:15;5.93;;;4.30;;
65418;SDS011;52027;50.658;14.004;2022-08-14T14:24:43;6.43;;;4.43;;
65418;SDS011;52027;50.658;14.004;2022-08-14T14:27:10;9.23;;;4.50;;
65418;SDS011;52027;50.658;14.004;2022-08-14T14:29:38;6.30;;;4.25;;
65418;SDS011;52027;50.658;14.004;2022-08-14T14:32:14;6.40;;;4.45;;
65418;SDS011;52027;50.658;14.004;2022-08-14T14:34:41;6.95;;;4.07;;
65418;SDS011;52027;50.658;14.004;2022-08-14T14:37:09;5.00;;;4.18;;
65418;SDS011;52027;50.658;14.004;2022-08-14T14:39:36;4.85;;;4.30;;
65418;SDS011;52027;50.658;14.004;2022-08-14T14:42:02;6.22;;;4.45;;
65418;SDS011;52027;50.658;14.004;2022-08-14T14:44:33;6.25;;;4.53;;
65418;SDS011;52027;50.658;14.004;2022-08-14T14:47:05;5.70;;;4.35;;
65418;SDS011;52027;50.658;14.004;2022-08-14T14:49:32;6.30;;;4.30;;
65418;SDS011;52027;50.658;14.004;2022-08-14T14:51:57;8.23;;;4.35;;
65418;SDS011;52027;50.658;14.004;2022-08-14T14:54:23;7.25;;;4.65;;
65418;SDS011;52027;50.658;14.004;2022-08-14T14:56:48;7.43;;;4.40;;
65418;SDS011;52027;50.658;14.004;2022-08-14T14:59:16;6.65;;;4.53;;
65418;SDS011;52027;50.658;14.004;2022-08-14T15:01:46;7.22;;;4.45;;